sensor_id;sensor_type;location;lat;lon;timestamp;pressure;altitude;pressure_sealevel;temperature;humidity
75972;BME280;64651;47.540;19.088;2023-09-19T00:03:49;99876.66;;;23.60;55.25
75972;BME280;64651;47.540;19.088;2023-09-19T00:08:52;99868.97;;;23.57;55.34
75972;BME280;64651;47.540;19.088;2023-09-19T00:13:54;99874.13;;;23.52;55.76
75972;BME280;64651;47.540;19.088;2023-09-19T00:18:57;99875.16;;;23.43;55.94
75972;BME280;64651;47.540;19.088;2023-09-19T00:24:00;99866.38;;;23.45;56.00
75972;BME280;64651;47.540;19.088;2023-09-19T00:29:02;99868.66;;;23.36;56.41
75972;BME280;64651;47.540;19.088;2023-09-19T00:34:05;99866.91;;;23.28;56.66
75972;BME280;64651;47.540;19.088;2023-09-19T00:39:12;99864.03;;;23.24;56.97
75972;BME280;64651;47.540;19.088;2023-09-19T00:44:14;99866.44;;;23.22;57.10
75972;BME280;64651;47.540;19.088;2023-09-19T00:49:18;99862.66;;;23.11;57.76
75972;BME280;64651;47.540;19.088;2023-09-19T00:54:22;99860.22;;;23.10;58.13
75972;BME280;64651;47.540;19.088;2023-09-19T00:59:24;99860.12;;;23.06;58.44
75972;BME280;64651;47.540;19.088;2023-09-19T01:04:26;99858.09;;;23.03;58.73
75972;BME280;64651;47.540;19.088;2023-09-19T01:09:29;99851.88;;;22.90;59.31
75972;BME280;64651;47.540;19.088;2023-09-19T01:30:26;99852.53;;;22.80;59.98
75972;BME280;64651;47.540;19.088;2023-09-19T01:35:29;99851.03;;;22.86;59.88
75972;BME280;64651;47.540;19.088;2023-09-19T01:40:34;99848.81;;;22.76;60.38
75972;BME280;64651;47.540;19.088;2023-09-19T01:46:15;99849.13;;;22.71;60.47
75972;BME280;64651;47.540;19.088;2023-09-19T01:56:38;99835.16;;;22.52;61.64
75972;BME280;64651;47.540;19.088;2023-09-19T02:01:42;99835.63;;;22.35;62.41
75972;BME280;64651;47.540;19.088;2023-09-19T02:06:46;99838.00;;;22.33;62.46
75972;BME280;64651;47.540;19.088;2023-09-19T02:11:49;99839.69;;;22.37;62.70
75972;BME280;64651;47.540;19.088;2023-09-19T02:16:51;99843.44;;;22.45;62.53
75972;BME280;64651;47.540;19.088;2023-09-19T02:21:53;99845.81;;;22.43;62.76
75972;BME280;64651;47.540;19.088;2023-09-19T02:26:56;99841.56;;;22.52;62.74
75972;BME280;64651;47.540;19.088;2023-09-19T02:32:01;99842.81;;;22.55;62.81
75972;BME280;64651;47.540;19.088;2023-09-19T02:37:06;99834.41;;;22.55;62.93
75972;BME280;64651;47.540;19.088;2023-09-19T02:42:08;99835.41;;;22.43;63.33
75972;BME280;64651;47.540;19.088;2023-09-19T02:47:10;99831.38;;;22.21;64.34
75972;BME280;64651;47.540;19.088;2023-09-19T02:52:13;99842.75;;;22.09;64.83
75972;BME280;64651;47.540;19.088;2023-09-19T02:57:16;99841.37;;;22.00;65.11
75972;BME280;64651;47.540;19.088;2023-09-19T03:02:19;99837.53;;;21.89;65.64
75972;BME280;64651;47.540;19.088;2023-09-19T03:07:22;99847.41;;;21.82;66.16
75972;BME280;64651;47.540;19.088;2023-09-19T03:12:24;99830.91;;;21.97;65.82
75972;BME280;64651;47.540;19.088;2023-09-19T03:17:27;99837.75;;;21.99;65.80
75972;BME280;64651;47.540;19.088;2023-09-19T03:22:29;99831.63;;;21.94;65.77
75972;BME280;64651;47.540;19.088;2023-09-19T03:27:32;99836.88;;;21.95;65.88
75972;BME280;64651;47.540;19.088;2023-09-19T03:32:35;99833.41;;;21.82;66.49
75972;BME280;64651;47.540;19.088;2023-09-19T03:37:37;99837.94;;;21.91;66.28
75972;BME280;64651;47.540;19.088;2023-09-19T03:42:41;99836.91;;;21.79;66.85
75972;BME280;64651;47.540;19.088;2023-09-19T03:47:43;99849.09;;;21.87;66.67
75972;BME280;64651;47.540;19.088;2023-09-19T03:52:46;99834.78;;;21.73;67.63
75972;BME280;64651;47.540;19.088;2023-09-19T03:57:48;99845.41;;;22.02;66.72
75972;BME280;64651;47.540;19.088;2023-09-19T04:02:52;99844.69;;;22.05;66.59
75972;BME280;64651;47.540;19.088;2023-09-19T04:12:56;99866.34;;;22.27;66.12
75972;BME280;64651;47.540;19.088;2023-09-19T04:17:58;99859.56;;;22.51;65.25
75972;BME280;64651;47.540;19.088;2023-09-19T04:23:01;99852.88;;;22.56;65.13
75972;BME280;64651;47.540;19.088;2023-09-19T04:28:04;99854.19;;;22.62;65.14
75972;BME280;64651;47.540;19.088;2023-09-19T04:33:08;99863.41;;;22.62;65.02
75972;BME280;64651;47.540;19.088;2023-09-19T04:38:10;99869.41;;;22.42;65.48
75972;BME280;64651;47.540;19.088;2023-09-19T04:43:13;99876.38;;;22.29;65.76
75972;BME280;64651;47.540;19.088;2023-09-19T04:48:17;99880.00;;;22.52;64.66
75972;BME280;64651;47.540;19.088;2023-09-19T04:53:19;99889.91;;;22.46;64.22
75972;BME280;64651;47.540;19.088;2023-09-19T04:58:23;99898.16;;;22.58;63.56
75972;BME280;64651;47.540;19.088;2023-09-19T05:03:25;99896.97;;;22.59;62.98
75972;BME280;64651;47.540;19.088;2023-09-19T05:08:28;99907.47;;;22.62;62.81
75972;BME280;64651;47.540;19.088;2023-09-19T05:13:30;99903.88;;;22.42;63.39
75972;BME280;64651;47.540;19.088;2023-09-19T05:18:33;99913.97;;;22.27;64.06
75972;BME280;64651;47.540;19.088;2023-09-19T05:23:35;99934.81;;;21.92;65.68
75972;BME280;64651;47.540;19.088;2023-09-19T05:28:39;99943.59;;;21.55;67.77
75972;BME280;64651;47.540;19.088;2023-09-19T05:33:41;99949.22;;;21.24;69.05
75972;BME280;64651;47.540;19.088;2023-09-19T05:38:44;99955.87;;;21.35;68.69
75972;BME280;64651;47.540;19.088;2023-09-19T05:43:49;99958.06;;;21.26;68.58
75972;BME280;64651;47.540;19.088;2023-09-19T05:48:52;99964.06;;;20.81;69.71
75972;BME280;64651;47.540;19.088;2023-09-19T05:53:54;99960.94;;;20.98;69.17
75972;BME280;64651;47.540;19.088;2023-09-19T05:58:57;99963.16;;;20.77;69.69
75972;BME280;64651;47.540;19.088;2023-09-19T06:04:00;99970.72;;;20.60;70.23
75972;BME280;64651;47.540;19.088;2023-09-19T06:09:02;99987.97;;;20.50;70.80
75972;BME280;64651;47.540;19.088;2023-09-19T06:14:07;99978.63;;;20.58;70.72
75972;BME280;64651;47.540;19.088;2023-09-19T06:19:09;99974.00;;;20.50;71.03
75972;BME280;64651;47.540;19.088;2023-09-19T06:24:11;99993.31;;;20.55;72.62
75972;BME280;64651;47.540;19.088;2023-09-19T06:29:14;99992.50;;;20.15;74.78
75972;BME280;64651;47.540;19.088;2023-09-19T06:34:16;99988.03;;;19.98;75.63
75972;BME280;64651;47.540;19.088;2023-09-19T06:39:20;100009.84;;;20.08;74.79
75972;BME280;64651;47.540;19.088;2023-09-19T06:44:24;100015.00;;;20.06;74.43
75972;BME280;64651;47.540;19.088;2023-09-19T06:49:33;100025.84;;;19.71;75.48
75972;BME280;64651;47.540;19.088;2023-09-19T06:54:35;100020.50;;;19.66;77.06
75972;BME280;64651;47.540;19.088;2023-09-19T06:59:38;100032.84;;;19.65;78.15
75972;BME280;64651;47.540;19.088;2023-09-19T07:04:40;100033.19;;;19.64;78.31
75972;BME280;64651;47.540;19.088;2023-09-19T07:09:43;100030.03;;;19.65;77.98
75972;BME280;64651;47.540;19.088;2023-09-19T07:14:45;100039.81;;;19.71;78.21
75972;BME280;64651;47.540;19.088;2023-09-19T07:19:47;100054.22;;;19.49;79.45
75972;BME280;64651;47.540;19.088;2023-09-19T07:24:51;100063.91;;;19.52;79.91
75972;BME280;64651;47.540;19.088;2023-09-19T07:29:54;100066.56;;;19.48;79.44
75972;BME280;64651;47.540;19.088;2023-09-19T07:34:56;100066.22;;;19.50;78.92
75972;BME280;64651;47.540;19.088;2023-09-19T07:40:08;100075.19;;;19.67;78.39
75972;BME280;64651;47.540;19.088;2023-09-19T07:45:14;100076.47;;;19.58;79.31
75972;BME280;64651;47.540;19.088;2023-09-19T07:50:17;100081.31;;;19.49;81.22
75972;BME280;64651;47.540;19.088;2023-09-19T07:55:21;100098.63;;;19.09;84.81
75972;BME280;64651;47.540;19.088;2023-09-19T08:00:26;100110.00;;;19.04;86.23
75972;BME280;64651;47.540;19.088;2023-09-19T08:05:29;100106.59;;;18.98;86.70
75972;BME280;64651;47.540;19.088;2023-09-19T08:10:31;100111.34;;;19.19;86.98
75972;BME280;64651;47.540;19.088;2023-09-19T08:15:43;100120.03;;;19.17;87.32
75972;BME280;64651;47.540;19.088;2023-09-19T08:20:52;100123.69;;;19.30;87.08
75972;BME280;64651;47.540;19.088;2023-09-19T08:25:58;100134.75;;;19.38;85.80
75972;BME280;64651;47.540;19.088;2023-09-19T08:31:05;100159.69;;;19.23;85.44
75972;BME280;64651;47.540;19.088;2023-09-19T08:36:08;100162.44;;;19.11;85.79
75972;BME280;64651;47.540;19.088;2023-09-19T08:41:11;100159.44;;;19.16;85.00
75972;BME280;64651;47.540;19.088;2023-09-19T08:46:18;100169.66;;;19.12;86.35
75972;BME280;64651;47.540;19.088;2023-09-19T08:51:27;100179.03;;;19.40;84.40
75972;BME280;64651;47.540;19.088;2023-09-19T08:56:33;100191.97;;;19.44;84.49
75972;BME280;64651;47.540;19.088;2023-09-19T09:01:35;100211.69;;;19.60;83.90
75972;BME280;64651;47.540;19.088;2023-09-19T09:06:41;100218.53;;;19.30;86.90
75972;BME280;64651;47.540;19.088;2023-09-19T09:11:45;100217.06;;;19.12;88.49
75972;BME280;64651;47.540;19.088;2023-09-19T09:16:50;100211.81;;;19.31;87.21
75972;BME280;64651;47.540;19.088;2023-09-19T09:21:52;100188.34;;;19.77;85.43
75972;BME280;64651;47.540;19.088;2023-09-19T09:26:55;100163.22;;;21.14;80.67
75972;BME280;64651;47.540;19.088;2023-09-19T09:32:19;100173.16;;;21.39;77.34
75972;BME280;64651;47.540;19.088;2023-09-19T09:37:22;100163.53;;;21.68;75.78
75972;BME280;64651;47.540;19.088;2023-09-19T09:42:30;100144.16;;;21.48;77.12
75972;BME280;64651;47.540;19.088;2023-09-19T09:47:42;100134.94;;;21.03;80.23
75972;BME280;64651;47.540;19.088;2023-09-19T09:52:52;100156.13;;;20.64;81.06
75972;BME280;64651;47.540;19.088;2023-09-19T09:58:16;100149.41;;;19.93;82.82
75972;BME280;64651;47.540;19.088;2023-09-19T10:03:20;100183.37;;;20.31;81.36
75972;BME280;64651;47.540;19.088;2023-09-19T10:08:24;100191.44;;;20.45;81.10
75972;BME280;64651;47.540;19.088;2023-09-19T10:13:29;100183.81;;;20.82;78.31
75972;BME280;64651;47.540;19.088;2023-09-19T10:18:35;100175.31;;;22.37;72.30
75972;BME280;64651;47.540;19.088;2023-09-19T10:23:40;100173.09;;;24.00;65.54
75972;BME280;64651;47.540;19.088;2023-09-19T10:28:46;100175.87;;;22.61;68.20
75972;BME280;64651;47.540;19.088;2023-09-19T10:33:50;100188.41;;;22.83;67.98
75972;BME280;64651;47.540;19.088;2023-09-19T10:38:55;100190.16;;;24.59;62.62
75972;BME280;64651;47.540;19.088;2023-09-19T10:44:04;100195.84;;;24.14;62.98
75972;BME280;64651;47.540;19.088;2023-09-19T10:49:10;100204.75;;;23.74;64.03
75972;BME280;64651;47.540;19.088;2023-09-19T10:54:16;100201.25;;;22.34;68.32
75972;BME280;64651;47.540;19.088;2023-09-19T10:59:22;100197.50;;;22.61;67.96
75972;BME280;64651;47.540;19.088;2023-09-19T11:04:27;100211.34;;;22.54;67.47
75972;BME280;64651;47.540;19.088;2023-09-19T11:09:50;100208.09;;;22.67;66.88
75972;BME280;64651;47.540;19.088;2023-09-19T11:15:04;100213.16;;;22.78;66.62
75972;BME280;64651;47.540;19.088;2023-09-19T11:30:43;100220.84;;;32.27;39.50
75972;BME280;64651;47.540;19.088;2023-09-19T11:36:11;100205.69;;;34.95;32.92
75972;BME280;64651;47.540;19.088;2023-09-19T11:46:23;100191.50;;;36.51;29.00
75972;BME280;64651;47.540;19.088;2023-09-19T11:51:25;100179.25;;;38.52;26.16
75972;BME280;64651;47.540;19.088;2023-09-19T11:56:31;100182.47;;;33.80;32.49
75972;BME280;64651;47.540;19.088;2023-09-19T12:01:50;100179.44;;;33.31;33.63
75972;BME280;64651;47.540;19.088;2023-09-19T12:06:56;100160.09;;;35.05;30.77
75972;BME280;64651;47.540;19.088;2023-09-19T12:12:00;100175.31;;;36.91;27.97
75972;BME280;64651;47.540;19.088;2023-09-19T12:17:03;100163.03;;;36.22;28.38
75972;BME280;64651;47.540;19.088;2023-09-19T12:22:05;100159.88;;;35.12;29.93
75972;BME280;64651;47.540;19.088;2023-09-19T12:27:08;100183.22;;;31.58;36.07
75972;BME280;64651;47.540;19.088;2023-09-19T12:32:12;100188.06;;;30.56;38.79
75972;BME280;64651;47.540;19.088;2023-09-19T12:37:15;100171.78;;;33.84;33.39
75972;BME280;64651;47.540;19.088;2023-09-19T12:42:24;100184.38;;;32.88;34.66
75972;BME280;64651;47.540;19.088;2023-09-19T12:47:30;100195.44;;;32.86;34.18
75972;BME280;64651;47.540;19.088;2023-09-19T12:52:37;100195.28;;;33.36;33.95
75972;BME280;64651;47.540;19.088;2023-09-19T12:57:40;100196.53;;;34.88;31.46
75972;BME280;64651;47.540;19.088;2023-09-19T13:03:18;100181.12;;;38.46;26.38
75972;BME280;64651;47.540;19.088;2023-09-19T13:08:42;100193.50;;;36.41;28.71
75972;BME280;64651;47.540;19.088;2023-09-19T13:18:55;100183.66;;;35.25;30.55
75972;BME280;64651;47.540;19.088;2023-09-19T13:24:22;100177.66;;;37.71;27.20
75972;BME280;64651;47.540;19.088;2023-09-19T13:29:28;100166.44;;;38.44;26.20
75972;BME280;64651;47.540;19.088;2023-09-19T13:34:30;100176.75;;;36.14;28.90
75972;BME280;64651;47.540;19.088;2023-09-19T13:39:33;100171.72;;;35.26;29.72
75972;BME280;64651;47.540;19.088;2023-09-19T13:44:35;100182.72;;;35.69;28.95
75972;BME280;64651;47.540;19.088;2023-09-19T13:49:38;100195.00;;;36.80;28.00
75972;BME280;64651;47.540;19.088;2023-09-19T13:54:40;100196.03;;;35.06;29.83
75972;BME280;64651;47.540;19.088;2023-09-19T13:59:43;100204.75;;;35.56;29.23
75972;BME280;64651;47.540;19.088;2023-09-19T14:04:45;100210.06;;;34.39;30.47
75972;BME280;64651;47.540;19.088;2023-09-19T14:09:47;100210.91;;;36.47;28.37
75972;BME280;64651;47.540;19.088;2023-09-19T14:14:49;100201.81;;;38.53;25.63
75972;BME280;64651;47.540;19.088;2023-09-19T14:19:53;100206.06;;;35.80;28.47
75972;BME280;64651;47.540;19.088;2023-09-19T14:24:55;100196.66;;;35.67;28.79
75972;BME280;64651;47.540;19.088;2023-09-19T14:29:57;100223.75;;;35.92;28.75
75972;BME280;64651;47.540;19.088;2023-09-19T14:35:00;100218.06;;;34.60;30.84
75972;BME280;64651;47.540;19.088;2023-09-19T14:40:03;100215.53;;;33.97;32.06
75972;BME280;64651;47.540;19.088;2023-09-19T14:45:11;100205.25;;;34.16;31.70
75972;BME280;64651;47.540;19.088;2023-09-19T14:50:19;100202.87;;;34.79;30.68
75972;BME280;64651;47.540;19.088;2023-09-19T14:55:21;100197.50;;;34.00;31.69
75972;BME280;64651;47.540;19.088;2023-09-19T15:00:25;100203.78;;;36.13;28.98
75972;BME280;64651;47.540;19.088;2023-09-19T15:05:27;100211.59;;;36.13;28.56
75972;BME280;64651;47.540;19.088;2023-09-19T15:10:32;100209.44;;;32.53;33.32
75972;BME280;64651;47.540;19.088;2023-09-19T15:15:34;100208.28;;;31.70;34.55
75972;BME280;64651;47.540;19.088;2023-09-19T15:20:42;100210.81;;;31.31;34.90
75972;BME280;64651;47.540;19.088;2023-09-19T15:25:49;100216.53;;;30.49;36.21
75972;BME280;64651;47.540;19.088;2023-09-19T15:31:00;100223.81;;;30.53;36.49
75972;BME280;64651;47.540;19.088;2023-09-19T15:36:11;100223.31;;;30.99;35.49
75972;BME280;64651;47.540;19.088;2023-09-19T15:41:13;100229.72;;;30.21;36.93
75972;BME280;64651;47.540;19.088;2023-09-19T15:46:15;100240.72;;;29.22;38.99
75972;BME280;64651;47.540;19.088;2023-09-19T15:51:18;100238.50;;;26.69;43.97
75972;BME280;64651;47.540;19.088;2023-09-19T15:56:21;100254.13;;;25.45;47.58
75972;BME280;64651;47.540;19.088;2023-09-19T16:01:25;100263.69;;;24.84;49.75
75972;BME280;64651;47.540;19.088;2023-09-19T16:06:29;100265.34;;;24.36;51.60
75972;BME280;64651;47.540;19.088;2023-09-19T16:11:34;100262.09;;;23.92;52.87
75972;BME280;64651;47.540;19.088;2023-09-19T16:16:37;100262.72;;;23.63;53.91
75972;BME280;64651;47.540;19.088;2023-09-19T16:21:40;100273.12;;;23.43;54.46
75972;BME280;64651;47.540;19.088;2023-09-19T16:26:43;100268.97;;;23.18;55.57
75972;BME280;64651;47.540;19.088;2023-09-19T16:31:45;100260.06;;;22.96;56.38
75972;BME280;64651;47.540;19.088;2023-09-19T16:36:47;100254.41;;;22.77;56.81
75972;BME280;64651;47.540;19.088;2023-09-19T16:41:50;100259.50;;;22.56;57.63
75972;BME280;64651;47.540;19.088;2023-09-19T16:46:53;100269.28;;;22.31;59.07
75972;BME280;64651;47.540;19.088;2023-09-19T16:51:55;100274.97;;;22.18;59.53
75972;BME280;64651;47.540;19.088;2023-09-19T16:56:58;100270.19;;;21.91;60.69
75972;BME280;64651;47.540;19.088;2023-09-19T17:02:00;100280.06;;;21.73;61.33
75972;BME280;64651;47.540;19.088;2023-09-19T17:07:03;100288.22;;;21.50;62.41
75972;BME280;64651;47.540;19.088;2023-09-19T17:12:06;100299.72;;;21.33;63.91
75972;BME280;64651;47.540;19.088;2023-09-19T17:17:08;100292.62;;;21.23;64.56
75972;BME280;64651;47.540;19.088;2023-09-19T17:22:14;100310.78;;;21.29;64.81
75972;BME280;64651;47.540;19.088;2023-09-19T17:27:16;100326.66;;;21.25;64.93
75972;BME280;64651;47.540;19.088;2023-09-19T17:32:20;100325.37;;;21.23;65.09
75972;BME280;64651;47.540;19.088;2023-09-19T17:37:23;100325.63;;;21.18;65.33
75972;BME280;64651;47.540;19.088;2023-09-19T17:42:25;100320.41;;;21.04;65.82
75972;BME280;64651;47.540;19.088;2023-09-19T17:47:28;100327.97;;;21.03;66.11
75972;BME280;64651;47.540;19.088;2023-09-19T17:52:30;100325.50;;;21.02;66.15
75972;BME280;64651;47.540;19.088;2023-09-19T17:57:34;100336.97;;;20.85;66.79
75972;BME280;64651;47.540;19.088;2023-09-19T18:02:37;100342.78;;;20.80;67.22
75972;BME280;64651;47.540;19.088;2023-09-19T18:07:42;100355.56;;;20.56;68.06
75972;BME280;64651;47.540;19.088;2023-09-19T18:12:45;100347.97;;;20.45;68.63
75972;BME280;64651;47.540;19.088;2023-09-19T18:17:49;100358.91;;;20.38;69.45
75972;BME280;64651;47.540;19.088;2023-09-19T18:22:51;100363.22;;;20.35;69.82
75972;BME280;64651;47.540;19.088;2023-09-19T18:27:55;100368.50;;;20.16;70.76
75972;BME280;64651;47.540;19.088;2023-09-19T18:32:59;100369.22;;;19.92;71.91
75972;BME280;64651;47.540;19.088;2023-09-19T18:38:02;100375.78;;;19.75;72.76
75972;BME280;64651;47.540;19.088;2023-09-19T18:43:05;100377.41;;;19.56;74.41
75972;BME280;64651;47.540;19.088;2023-09-19T18:48:07;100383.72;;;19.44;75.31
75972;BME280;64651;47.540;19.088;2023-09-19T18:53:10;100379.22;;;19.31;76.50
75972;BME280;64651;47.540;19.088;2023-09-19T18:58:12;100385.19;;;19.21;77.06
75972;BME280;64651;47.540;19.088;2023-09-19T19:03:15;100390.19;;;19.07;78.25
75972;BME280;64651;47.540;19.088;2023-09-19T19:08:17;100397.59;;;19.02;79.12
75972;BME280;64651;47.540;19.088;2023-09-19T19:13:21;100396.47;;;18.95;79.51
75972;BME280;64651;47.540;19.088;2023-09-19T19:18:23;100411.59;;;18.85;80.04
75972;BME280;64651;47.540;19.088;2023-09-19T19:23:31;100416.22;;;18.81;80.32
75972;BME280;64651;47.540;19.088;2023-09-19T19:28:33;100421.28;;;18.79;80.75
75972;BME280;64651;47.540;19.088;2023-09-19T19:33:41;100420.53;;;18.70;81.16
75972;BME280;64651;47.540;19.088;2023-09-19T19:38:45;100419.06;;;18.64;81.62
75972;BME280;64651;47.540;19.088;2023-09-19T19:43:48;100425.66;;;18.59;81.76
75972;BME280;64651;47.540;19.088;2023-09-19T19:48:51;100423.00;;;18.54;82.29
75972;BME280;64651;47.540;19.088;2023-09-19T19:53:54;100431.72;;;18.44;83.08
75972;BME280;64651;47.540;19.088;2023-09-19T19:58:58;100431.22;;;18.42;83.83
75972;BME280;64651;47.540;19.088;2023-09-19T20:04:01;100432.88;;;18.35;83.57
75972;BME280;64651;47.540;19.088;2023-09-19T20:09:03;100435.03;;;18.29;83.71
75972;BME280;64651;47.540;19.088;2023-09-19T20:14:07;100440.09;;;18.18;84.28
75972;BME280;64651;47.540;19.088;2023-09-19T20:19:10;100438.81;;;18.16;84.62
75972;BME280;64651;47.540;19.088;2023-09-19T20:24:12;100438.81;;;18.16;84.59
75972;BME280;64651;47.540;19.088;2023-09-19T20:29:22;100442.41;;;18.16;84.82
75972;BME280;64651;47.540;19.088;2023-09-19T20:34:24;100451.59;;;18.08;85.18
75972;BME280;64651;47.540;19.088;2023-09-19T20:39:28;100444.69;;;18.06;85.41
75972;BME280;64651;47.540;19.088;2023-09-19T20:44:31;100435.53;;;18.05;85.42
75972;BME280;64651;47.540;19.088;2023-09-19T20:49:33;100440.44;;;18.00;85.74
75972;BME280;64651;47.540;19.088;2023-09-19T20:54:35;100452.59;;;18.04;85.94
75972;BME280;64651;47.540;19.088;2023-09-19T20:59:37;100441.75;;;17.94;86.43
75972;BME280;64651;47.540;19.088;2023-09-19T21:04:41;100444.88;;;17.92;86.84
75972;BME280;64651;47.540;19.088;2023-09-19T21:09:43;100451.59;;;17.91;87.14
75972;BME280;64651;47.540;19.088;2023-09-19T21:14:45;100447.34;;;17.85;87.26
75972;BME280;64651;47.540;19.088;2023-09-19T21:19:48;100458.28;;;17.81;87.62
75972;BME280;64651;47.540;19.088;2023-09-19T21:24:51;100458.13;;;17.95;87.21
75972;BME280;64651;47.540;19.088;2023-09-19T21:29:55;100465.69;;;18.03;86.85
75972;BME280;64651;47.540;19.088;2023-09-19T21:34:57;100462.72;;;18.00;86.58
75972;BME280;64651;47.540;19.088;2023-09-19T21:40:03;100461.91;;;17.91;87.22
75972;BME280;64651;47.540;19.088;2023-09-19T21:45:06;100470.75;;;17.84;87.66
75972;BME280;64651;47.540;19.088;2023-09-19T21:50:10;100473.69;;;17.62;88.45
75972;BME280;64651;47.540;19.088;2023-09-19T21:55:12;100484.72;;;17.44;89.42
75972;BME280;64651;47.540;19.088;2023-09-19T22:00:14;100485.53;;;17.36;90.17
75972;BME280;64651;47.540;19.088;2023-09-19T22:05:33;100479.28;;;17.31;90.40
75972;BME280;64651;47.540;19.088;2023-09-19T22:10:46;100489.28;;;17.32;89.96
75972;BME280;64651;47.540;19.088;2023-09-19T22:15:50;100480.91;;;17.23;90.43
75972;BME280;64651;47.540;19.088;2023-09-19T22:20:57;100489.06;;;17.20;90.68
75972;BME280;64651;47.540;19.088;2023-09-19T22:26:16;100489.56;;;17.22;90.91
75972;BME280;64651;47.540;19.088;2023-09-19T22:31:26;100492.62;;;17.12;91.40
75972;BME280;64651;47.540;19.088;2023-09-19T22:36:39;100493.47;;;17.12;91.62
75972;BME280;64651;47.540;19.088;2023-09-19T22:41:44;100491.81;;;17.11;91.60
75972;BME280;64651;47.540;19.088;2023-09-19T22:46:47;100504.84;;;17.02;91.85
75972;BME280;64651;47.540;19.088;2023-09-19T22:51:51;100510.38;;;16.93;92.35
75972;BME280;64651;47.540;19.088;2023-09-19T22:56:54;100513.91;;;16.85;93.05
75972;BME280;64651;47.540;19.088;2023-09-19T23:01:57;100512.25;;;16.76;93.55
75972;BME280;64651;47.540;19.088;2023-09-19T23:07:01;100520.75;;;16.79;93.78
75972;BME280;64651;47.540;19.088;2023-09-19T23:12:07;100525.78;;;16.77;93.76
75972;BME280;64651;47.540;19.088;2023-09-19T23:17:18;100530.88;;;16.75;94.10
75972;BME280;64651;47.540;19.088;2023-09-19T23:22:24;100529.97;;;16.66;94.43
75972;BME280;64651;47.540;19.088;2023-09-19T23:27:29;100525.47;;;16.56;94.65
75972;BME280;64651;47.540;19.088;2023-09-19T23:32:38;100533.31;;;16.54;94.91
75972;BME280;64651;47.540;19.088;2023-09-19T23:37:40;100526.44;;;16.52;95.08
75972;BME280;64651;47.540;19.088;2023-09-19T23:42:42;100523.84;;;16.55;95.58
75972;BME280;64651;47.540;19.088;2023-09-19T23:47:46;100524.47;;;16.52;95.48
75972;BME280;64651;47.540;19.088;2023-09-19T23:52:49;100530.53;;;16.54;95.44
75972;BME280;64651;47.540;19.088;2023-09-19T23:57:51;100529.56;;;16.59;95.14
